sensor_id;sensor_type;location;lat;lon;timestamp;P1;durP1;ratioP1;P2;durP2;ratioP2
68250;SDS011;55066;51.560;4.642;2023-10-08T00:01:18;8.60;;;2.83;;
68250;SDS011;55066;51.560;4.642;2023-10-08T00:03:44;6.77;;;2.70;;
68250;SDS011;55066;51.560;4.642;2023-10-08T00:06:21;10.95;;;3.00;;
68250;SDS011;55066;51.560;4.642;2023-10-08T00:08:46;10.32;;;2.95;;
68250;SDS011;55066;51.560;4.642;2023-10-08T00:11:13;11.10;;;3.58;;
68250;SDS011;55066;51.560;4.642;2023-10-08T00:13:41;11.75;;;2.85;;
68250;SDS011;55066;51.560;4.642;2023-10-08T00:16:08;9.23;;;2.70;;
68250;SDS011;55066;51.560;4.642;2023-10-08T00:18:43;10.20;;;2.70;;
68250;SDS011;55066;51.560;4.642;2023-10-08T00:21:19;11.30;;;2.80;;
68250;SDS011;55066;51.560;4.642;2023-10-08T00:23:51;14.52;;;2.80;;
68250;SDS011;55066;51.560;4.642;2023-10-08T00:26:26;10.82;;;3.15;;
68250;SDS011;55066;51.560;4.642;2023-10-08T00:28:56;6.70;;;2.57;;
68250;SDS011;55066;51.560;4.642;2023-10-08T00:31:24;11.18;;;2.95;;
68250;SDS011;55066;51.560;4.642;2023-10-08T00:33:56;8.02;;;2.45;;
68250;SDS011;55066;51.560;4.642;2023-10-08T00:36:23;10.43;;;2.75;;
68250;SDS011;55066;51.560;4.642;2023-10-08T00:38:51;12.07;;;2.65;;
68250;SDS011;55066;51.560;4.642;2023-10-08T00:41:19;10.20;;;3.10;;
68250;SDS011;55066;51.560;4.642;2023-10-08T00:43:47;10.40;;;2.92;;
68250;SDS011;55066;51.560;4.642;2023-10-08T00:46:13;9.55;;;2.97;;
68250;SDS011;55066;51.560;4.642;2023-10-08T00:48:57;13.65;;;3.22;;
68250;SDS011;55066;51.560;4.642;2023-10-08T00:51:44;12.90;;;2.85;;
68250;SDS011;55066;51.560;4.642;2023-10-08T00:54:10;9.07;;;2.60;;
68250;SDS011;55066;51.560;4.642;2023-10-08T00:56:42;9.13;;;2.88;;
68250;SDS011;55066;51.560;4.642;2023-10-08T00:59:22;9.57;;;2.78;;
68250;SDS011;55066;51.560;4.642;2023-10-08T01:01:49;12.27;;;2.92;;
68250;SDS011;55066;51.560;4.642;2023-10-08T01:04:30;13.20;;;2.90;;
68250;SDS011;55066;51.560;4.642;2023-10-08T01:07:02;11.97;;;2.93;;
68250;SDS011;55066;51.560;4.642;2023-10-08T01:09:37;10.65;;;3.17;;
68250;SDS011;55066;51.560;4.642;2023-10-08T01:12:14;10.45;;;2.90;;
68250;SDS011;55066;51.560;4.642;2023-10-08T01:14:43;10.30;;;2.75;;
68250;SDS011;55066;51.560;4.642;2023-10-08T01:17:11;9.82;;;3.28;;
68250;SDS011;55066;51.560;4.642;2023-10-08T01:19:44;9.10;;;2.80;;
68250;SDS011;55066;51.560;4.642;2023-10-08T01:22:16;12.73;;;3.03;;
68250;SDS011;55066;51.560;4.642;2023-10-08T01:24:44;9.10;;;2.83;;
68250;SDS011;55066;51.560;4.642;2023-10-08T01:27:19;7.80;;;3.05;;
68250;SDS011;55066;51.560;4.642;2023-10-08T01:29:47;12.27;;;3.38;;
68250;SDS011;55066;51.560;4.642;2023-10-08T01:32:15;10.90;;;3.77;;
68250;SDS011;55066;51.560;4.642;2023-10-08T01:34:48;9.40;;;3.00;;
68250;SDS011;55066;51.560;4.642;2023-10-08T01:37:14;11.57;;;3.10;;
68250;SDS011;55066;51.560;4.642;2023-10-08T01:39:47;9.98;;;3.03;;
68250;SDS011;55066;51.560;4.642;2023-10-08T01:42:15;11.75;;;3.30;;
68250;SDS011;55066;51.560;4.642;2023-10-08T01:44:45;11.50;;;3.00;;
68250;SDS011;55066;51.560;4.642;2023-10-08T01:47:19;7.60;;;3.00;;
68250;SDS011;55066;51.560;4.642;2023-10-08T01:49:44;12.17;;;3.13;;
68250;SDS011;55066;51.560;4.642;2023-10-08T01:52:11;10.50;;;3.00;;
68250;SDS011;55066;51.560;4.642;2023-10-08T01:54:43;10.18;;;3.25;;
68250;SDS011;55066;51.560;4.642;2023-10-08T01:57:09;8.73;;;3.63;;
68250;SDS011;55066;51.560;4.642;2023-10-08T01:59:35;11.43;;;3.77;;
68250;SDS011;55066;51.560;4.642;2023-10-08T02:02:03;11.30;;;3.20;;
68250;SDS011;55066;51.560;4.642;2023-10-08T02:04:30;10.20;;;3.13;;
68250;SDS011;55066;51.560;4.642;2023-10-08T02:06:58;13.52;;;3.50;;
68250;SDS011;55066;51.560;4.642;2023-10-08T02:09:24;13.77;;;3.37;;
68250;SDS011;55066;51.560;4.642;2023-10-08T02:11:51;10.45;;;3.30;;
68250;SDS011;55066;51.560;4.642;2023-10-08T02:14:21;9.35;;;3.28;;
68250;SDS011;55066;51.560;4.642;2023-10-08T02:16:48;11.65;;;3.10;;
68250;SDS011;55066;51.560;4.642;2023-10-08T02:19:14;8.90;;;3.03;;
68250;SDS011;55066;51.560;4.642;2023-10-08T02:21:43;10.77;;;3.20;;
68250;SDS011;55066;51.560;4.642;2023-10-08T02:24:11;10.90;;;3.30;;
68250;SDS011;55066;51.560;4.642;2023-10-08T02:26:40;13.10;;;3.65;;
68250;SDS011;55066;51.560;4.642;2023-10-08T02:29:08;8.88;;;3.40;;
68250;SDS011;55066;51.560;4.642;2023-10-08T02:31:40;8.07;;;2.80;;
68250;SDS011;55066;51.560;4.642;2023-10-08T02:34:06;14.07;;;3.90;;
68250;SDS011;55066;51.560;4.642;2023-10-08T02:36:38;14.32;;;3.28;;
68250;SDS011;55066;51.560;4.642;2023-10-08T02:39:08;9.43;;;3.30;;
68250;SDS011;55066;51.560;4.642;2023-10-08T02:41:40;10.60;;;3.15;;
68250;SDS011;55066;51.560;4.642;2023-10-08T02:44:11;11.77;;;3.38;;
68250;SDS011;55066;51.560;4.642;2023-10-08T02:46:44;11.90;;;2.90;;
68250;SDS011;55066;51.560;4.642;2023-10-08T02:49:18;12.38;;;3.60;;
68250;SDS011;55066;51.560;4.642;2023-10-08T02:51:51;13.52;;;3.05;;
68250;SDS011;55066;51.560;4.642;2023-10-08T02:54:19;8.68;;;3.30;;
68250;SDS011;55066;51.560;4.642;2023-10-08T02:56:51;9.93;;;3.47;;
68250;SDS011;55066;51.560;4.642;2023-10-08T02:59:17;12.50;;;3.30;;
68250;SDS011;55066;51.560;4.642;2023-10-08T03:01:47;9.52;;;3.35;;
68250;SDS011;55066;51.560;4.642;2023-10-08T03:04:14;9.48;;;3.10;;
68250;SDS011;55066;51.560;4.642;2023-10-08T03:06:46;14.98;;;3.20;;
68250;SDS011;55066;51.560;4.642;2023-10-08T03:09:19;8.65;;;3.15;;
68250;SDS011;55066;51.560;4.642;2023-10-08T03:11:48;10.77;;;3.00;;
68250;SDS011;55066;51.560;4.642;2023-10-08T03:14:15;11.43;;;3.28;;
68250;SDS011;55066;51.560;4.642;2023-10-08T03:16:51;9.93;;;3.55;;
68250;SDS011;55066;51.560;4.642;2023-10-08T03:19:18;10.43;;;3.10;;
68250;SDS011;55066;51.560;4.642;2023-10-08T03:21:46;12.82;;;3.42;;
68250;SDS011;55066;51.560;4.642;2023-10-08T03:24:22;11.07;;;3.30;;
68250;SDS011;55066;51.560;4.642;2023-10-08T03:27:00;14.98;;;3.13;;
68250;SDS011;55066;51.560;4.642;2023-10-08T03:29:45;12.35;;;3.40;;
68250;SDS011;55066;51.560;4.642;2023-10-08T03:32:15;9.90;;;3.75;;
68250;SDS011;55066;51.560;4.642;2023-10-08T03:34:47;10.23;;;3.38;;
68250;SDS011;55066;51.560;4.642;2023-10-08T03:37:15;13.37;;;4.60;;
68250;SDS011;55066;51.560;4.642;2023-10-08T03:39:48;14.93;;;3.20;;
68250;SDS011;55066;51.560;4.642;2023-10-08T03:42:25;11.35;;;3.70;;
68250;SDS011;55066;51.560;4.642;2023-10-08T03:44:51;15.32;;;3.85;;
68250;SDS011;55066;51.560;4.642;2023-10-08T03:47:19;10.48;;;3.47;;
68250;SDS011;55066;51.560;4.642;2023-10-08T03:49:47;13.47;;;3.83;;
68250;SDS011;55066;51.560;4.642;2023-10-08T03:52:16;11.25;;;3.92;;
68250;SDS011;55066;51.560;4.642;2023-10-08T03:54:47;11.70;;;3.90;;
68250;SDS011;55066;51.560;4.642;2023-10-08T03:57:30;14.75;;;3.88;;
68250;SDS011;55066;51.560;4.642;2023-10-08T04:00:07;10.10;;;3.65;;
68250;SDS011;55066;51.560;4.642;2023-10-08T04:02:53;14.00;;;4.53;;
68250;SDS011;55066;51.560;4.642;2023-10-08T04:05:21;12.73;;;4.00;;
68250;SDS011;55066;51.560;4.642;2023-10-08T04:07:52;14.68;;;3.88;;
68250;SDS011;55066;51.560;4.642;2023-10-08T04:10:42;19.58;;;4.22;;
68250;SDS011;55066;51.560;4.642;2023-10-08T04:13:07;13.83;;;3.80;;
68250;SDS011;55066;51.560;4.642;2023-10-08T04:15:37;13.25;;;3.80;;
68250;SDS011;55066;51.560;4.642;2023-10-08T04:18:07;11.35;;;3.60;;
68250;SDS011;55066;51.560;4.642;2023-10-08T04:20:33;12.70;;;3.15;;
68250;SDS011;55066;51.560;4.642;2023-10-08T04:23:24;16.38;;;3.90;;
68250;SDS011;55066;51.560;4.642;2023-10-08T04:25:49;12.43;;;3.83;;
68250;SDS011;55066;51.560;4.642;2023-10-08T04:28:19;14.13;;;4.10;;
68250;SDS011;55066;51.560;4.642;2023-10-08T04:30:46;13.18;;;3.70;;
68250;SDS011;55066;51.560;4.642;2023-10-08T04:33:12;11.45;;;3.85;;
68250;SDS011;55066;51.560;4.642;2023-10-08T04:35:39;10.68;;;3.72;;
68250;SDS011;55066;51.560;4.642;2023-10-08T04:38:26;13.75;;;3.90;;
68250;SDS011;55066;51.560;4.642;2023-10-08T04:40:53;13.73;;;3.90;;
68250;SDS011;55066;51.560;4.642;2023-10-08T04:43:22;12.05;;;3.78;;
68250;SDS011;55066;51.560;4.642;2023-10-08T04:46:00;11.80;;;4.20;;
68250;SDS011;55066;51.560;4.642;2023-10-08T04:48:31;13.73;;;3.67;;
68250;SDS011;55066;51.560;4.642;2023-10-08T04:50:58;17.88;;;5.53;;
68250;SDS011;55066;51.560;4.642;2023-10-08T04:53:25;17.88;;;4.30;;
68250;SDS011;55066;51.560;4.642;2023-10-08T04:55:57;11.45;;;3.50;;
68250;SDS011;55066;51.560;4.642;2023-10-08T04:58:27;9.48;;;3.80;;
68250;SDS011;55066;51.560;4.642;2023-10-08T05:00:59;10.48;;;3.80;;
68250;SDS011;55066;51.560;4.642;2023-10-08T05:03:42;10.88;;;3.60;;
68250;SDS011;55066;51.560;4.642;2023-10-08T05:06:29;13.13;;;3.72;;
68250;SDS011;55066;51.560;4.642;2023-10-08T05:09:02;11.68;;;3.60;;
68250;SDS011;55066;51.560;4.642;2023-10-08T05:11:48;14.60;;;4.20;;
68250;SDS011;55066;51.560;4.642;2023-10-08T05:14:36;11.23;;;3.92;;
68250;SDS011;55066;51.560;4.642;2023-10-08T05:17:10;13.63;;;3.55;;
68250;SDS011;55066;51.560;4.642;2023-10-08T05:19:47;14.00;;;3.90;;
68250;SDS011;55066;51.560;4.642;2023-10-08T05:22:23;12.90;;;3.85;;
68250;SDS011;55066;51.560;4.642;2023-10-08T05:24:55;11.10;;;3.78;;
68250;SDS011;55066;51.560;4.642;2023-10-08T05:27:41;13.27;;;4.05;;
68250;SDS011;55066;51.560;4.642;2023-10-08T05:30:12;13.63;;;4.15;;
68250;SDS011;55066;51.560;4.642;2023-10-08T05:32:50;13.63;;;4.38;;
68250;SDS011;55066;51.560;4.642;2023-10-08T05:35:36;14.45;;;4.70;;
68250;SDS011;55066;51.560;4.642;2023-10-08T05:38:08;11.13;;;4.10;;
68250;SDS011;55066;51.560;4.642;2023-10-08T05:40:53;12.10;;;4.00;;
68250;SDS011;55066;51.560;4.642;2023-10-08T05:43:35;15.07;;;4.13;;
68250;SDS011;55066;51.560;4.642;2023-10-08T05:46:05;12.18;;;3.97;;
68250;SDS011;55066;51.560;4.642;2023-10-08T05:48:46;15.40;;;4.30;;
68250;SDS011;55066;51.560;4.642;2023-10-08T05:51:26;16.63;;;4.05;;
68250;SDS011;55066;51.560;4.642;2023-10-08T05:54:22;16.23;;;3.70;;
68250;SDS011;55066;51.560;4.642;2023-10-08T05:57:01;13.60;;;4.60;;
68250;SDS011;55066;51.560;4.642;2023-10-08T05:59:36;17.08;;;4.88;;
68250;SDS011;55066;51.560;4.642;2023-10-08T06:02:26;14.32;;;4.38;;
68250;SDS011;55066;51.560;4.642;2023-10-08T06:04:53;14.48;;;4.03;;
68250;SDS011;55066;51.560;4.642;2023-10-08T06:07:36;14.20;;;5.00;;
68250;SDS011;55066;51.560;4.642;2023-10-08T06:10:20;12.80;;;5.43;;
68250;SDS011;55066;51.560;4.642;2023-10-08T06:13:03;15.23;;;5.40;;
68250;SDS011;55066;51.560;4.642;2023-10-08T06:15:42;18.63;;;5.25;;
68250;SDS011;55066;51.560;4.642;2023-10-08T06:18:39;15.68;;;5.82;;
68250;SDS011;55066;51.560;4.642;2023-10-08T06:21:05;16.77;;;5.65;;
68250;SDS011;55066;51.560;4.642;2023-10-08T06:23:39;17.25;;;5.50;;
68250;SDS011;55066;51.560;4.642;2023-10-08T06:26:07;14.13;;;5.95;;
68250;SDS011;55066;51.560;4.642;2023-10-08T06:28:35;22.15;;;6.18;;
68250;SDS011;55066;51.560;4.642;2023-10-08T06:31:05;17.50;;;5.82;;
68250;SDS011;55066;51.560;4.642;2023-10-08T06:33:40;17.65;;;5.55;;
68250;SDS011;55066;51.560;4.642;2023-10-08T06:36:06;18.33;;;5.70;;
68250;SDS011;55066;51.560;4.642;2023-10-08T06:38:44;19.42;;;5.85;;
68250;SDS011;55066;51.560;4.642;2023-10-08T06:41:15;23.38;;;6.05;;
68250;SDS011;55066;51.560;4.642;2023-10-08T06:43:46;14.02;;;5.45;;
68250;SDS011;55066;51.560;4.642;2023-10-08T06:46:27;16.33;;;6.10;;
68250;SDS011;55066;51.560;4.642;2023-10-08T06:48:54;18.85;;;6.18;;
68250;SDS011;55066;51.560;4.642;2023-10-08T06:51:19;15.53;;;5.67;;
68250;SDS011;55066;51.560;4.642;2023-10-08T06:53:47;15.20;;;5.28;;
68250;SDS011;55066;51.560;4.642;2023-10-08T06:56:13;14.95;;;5.30;;
68250;SDS011;55066;51.560;4.642;2023-10-08T06:58:40;16.02;;;4.97;;
68250;SDS011;55066;51.560;4.642;2023-10-08T07:01:14;17.17;;;5.73;;
68250;SDS011;55066;51.560;4.642;2023-10-08T07:03:46;15.85;;;5.63;;
68250;SDS011;55066;51.560;4.642;2023-10-08T07:06:14;18.00;;;5.95;;
68250;SDS011;55066;51.560;4.642;2023-10-08T07:08:51;15.82;;;5.10;;
68250;SDS011;55066;51.560;4.642;2023-10-08T07:11:21;16.33;;;5.93;;
68250;SDS011;55066;51.560;4.642;2023-10-08T07:13:47;17.33;;;6.30;;
68250;SDS011;55066;51.560;4.642;2023-10-08T07:16:13;17.05;;;6.25;;
68250;SDS011;55066;51.560;4.642;2023-10-08T07:18:43;18.63;;;6.70;;
68250;SDS011;55066;51.560;4.642;2023-10-08T07:21:18;22.05;;;7.07;;
68250;SDS011;55066;51.560;4.642;2023-10-08T07:23:49;16.30;;;6.07;;
68250;SDS011;55066;51.560;4.642;2023-10-08T07:26:29;19.30;;;6.00;;
68250;SDS011;55066;51.560;4.642;2023-10-08T07:29:01;15.88;;;5.82;;
68250;SDS011;55066;51.560;4.642;2023-10-08T07:31:33;16.98;;;6.28;;
68250;SDS011;55066;51.560;4.642;2023-10-08T07:34:00;19.50;;;6.65;;
68250;SDS011;55066;51.560;4.642;2023-10-08T07:36:41;20.83;;;6.90;;
68250;SDS011;55066;51.560;4.642;2023-10-08T07:39:08;21.00;;;6.60;;
68250;SDS011;55066;51.560;4.642;2023-10-08T07:41:46;17.35;;;6.25;;
68250;SDS011;55066;51.560;4.642;2023-10-08T07:44:13;18.17;;;6.13;;
68250;SDS011;55066;51.560;4.642;2023-10-08T07:46:38;15.37;;;5.73;;
68250;SDS011;55066;51.560;4.642;2023-10-08T07:49:04;19.67;;;6.60;;
68250;SDS011;55066;51.560;4.642;2023-10-08T07:51:31;24.30;;;7.00;;
68250;SDS011;55066;51.560;4.642;2023-10-08T07:53:58;17.35;;;6.20;;
68250;SDS011;55066;51.560;4.642;2023-10-08T07:56:23;19.10;;;7.17;;
68250;SDS011;55066;51.560;4.642;2023-10-08T07:58:50;16.08;;;6.35;;
68250;SDS011;55066;51.560;4.642;2023-10-08T08:01:22;21.00;;;7.13;;
68250;SDS011;55066;51.560;4.642;2023-10-08T08:03:50;21.08;;;7.50;;
68250;SDS011;55066;51.560;4.642;2023-10-08T08:06:16;20.63;;;7.40;;
68250;SDS011;55066;51.560;4.642;2023-10-08T08:08:41;18.02;;;6.38;;
68250;SDS011;55066;51.560;4.642;2023-10-08T08:11:09;19.20;;;6.53;;
68250;SDS011;55066;51.560;4.642;2023-10-08T08:13:41;23.02;;;7.00;;
68250;SDS011;55066;51.560;4.642;2023-10-08T08:16:14;27.97;;;7.53;;
68250;SDS011;55066;51.560;4.642;2023-10-08T08:18:44;19.42;;;6.82;;
68250;SDS011;55066;51.560;4.642;2023-10-08T08:21:14;19.85;;;7.75;;
68250;SDS011;55066;51.560;4.642;2023-10-08T08:23:41;23.27;;;7.25;;
68250;SDS011;55066;51.560;4.642;2023-10-08T08:26:13;19.08;;;7.03;;
68250;SDS011;55066;51.560;4.642;2023-10-08T08:28:52;19.43;;;6.33;;
68250;SDS011;55066;51.560;4.642;2023-10-08T08:31:30;19.88;;;7.00;;
68250;SDS011;55066;51.560;4.642;2023-10-08T08:34:01;20.45;;;7.05;;
68250;SDS011;55066;51.560;4.642;2023-10-08T08:36:29;22.35;;;7.15;;
68250;SDS011;55066;51.560;4.642;2023-10-08T08:38:57;22.25;;;7.82;;
68250;SDS011;55066;51.560;4.642;2023-10-08T08:41:23;17.50;;;6.97;;
68250;SDS011;55066;51.560;4.642;2023-10-08T08:43:53;18.55;;;7.53;;
68250;SDS011;55066;51.560;4.642;2023-10-08T08:46:32;25.17;;;8.57;;
68250;SDS011;55066;51.560;4.642;2023-10-08T08:49:01;22.73;;;8.93;;
68250;SDS011;55066;51.560;4.642;2023-10-08T08:51:32;30.63;;;8.40;;
68250;SDS011;55066;51.560;4.642;2023-10-08T08:54:00;26.52;;;8.10;;
68250;SDS011;55066;51.560;4.642;2023-10-08T08:56:32;21.90;;;8.02;;
68250;SDS011;55066;51.560;4.642;2023-10-08T08:59:06;23.88;;;8.57;;
68250;SDS011;55066;51.560;4.642;2023-10-08T09:01:37;25.20;;;8.73;;
68250;SDS011;55066;51.560;4.642;2023-10-08T09:04:04;28.42;;;9.65;;
68250;SDS011;55066;51.560;4.642;2023-10-08T09:06:34;32.72;;;9.57;;
68250;SDS011;55066;51.560;4.642;2023-10-08T09:09:05;29.75;;;8.88;;
68250;SDS011;55066;51.560;4.642;2023-10-08T09:11:49;28.38;;;9.68;;
68250;SDS011;55066;51.560;4.642;2023-10-08T09:14:20;27.20;;;8.70;;
68250;SDS011;55066;51.560;4.642;2023-10-08T09:16:47;22.70;;;8.80;;
68250;SDS011;55066;51.560;4.642;2023-10-08T09:19:13;25.27;;;8.38;;
68250;SDS011;55066;51.560;4.642;2023-10-08T09:21:43;30.25;;;9.27;;
68250;SDS011;55066;51.560;4.642;2023-10-08T09:24:24;27.00;;;9.65;;
68250;SDS011;55066;51.560;4.642;2023-10-08T09:26:51;27.93;;;10.23;;
68250;SDS011;55066;51.560;4.642;2023-10-08T09:29:17;24.00;;;9.85;;
68250;SDS011;55066;51.560;4.642;2023-10-08T09:31:50;27.03;;;10.50;;
68250;SDS011;55066;51.560;4.642;2023-10-08T09:34:20;30.52;;;10.40;;
68250;SDS011;55066;51.560;4.642;2023-10-08T09:36:47;27.40;;;10.32;;
68250;SDS011;55066;51.560;4.642;2023-10-08T09:39:14;28.60;;;10.07;;
68250;SDS011;55066;51.560;4.642;2023-10-08T09:41:49;33.05;;;10.13;;
68250;SDS011;55066;51.560;4.642;2023-10-08T09:44:16;27.33;;;10.00;;
68250;SDS011;55066;51.560;4.642;2023-10-08T09:46:44;27.55;;;9.60;;
68250;SDS011;55066;51.560;4.642;2023-10-08T09:49:16;31.38;;;10.45;;
68250;SDS011;55066;51.560;4.642;2023-10-08T09:51:44;28.42;;;10.60;;
68250;SDS011;55066;51.560;4.642;2023-10-08T09:54:21;30.33;;;9.82;;
68250;SDS011;55066;51.560;4.642;2023-10-08T09:56:58;27.80;;;10.27;;
68250;SDS011;55066;51.560;4.642;2023-10-08T09:59:27;30.10;;;10.65;;
68250;SDS011;55066;51.560;4.642;2023-10-08T10:01:54;28.73;;;10.50;;
68250;SDS011;55066;51.560;4.642;2023-10-08T10:04:24;38.08;;;15.55;;
68250;SDS011;55066;51.560;4.642;2023-10-08T10:06:51;25.55;;;9.93;;
68250;SDS011;55066;51.560;4.642;2023-10-08T10:09:21;31.27;;;9.63;;
68250;SDS011;55066;51.560;4.642;2023-10-08T10:11:49;30.20;;;10.27;;
68250;SDS011;55066;51.560;4.642;2023-10-08T10:14:17;31.73;;;10.60;;
68250;SDS011;55066;51.560;4.642;2023-10-08T10:16:48;28.58;;;10.98;;
68250;SDS011;55066;51.560;4.642;2023-10-08T10:19:29;35.33;;;10.77;;
68250;SDS011;55066;51.560;4.642;2023-10-08T10:21:55;27.70;;;9.97;;
68250;SDS011;55066;51.560;4.642;2023-10-08T10:24:33;28.33;;;9.70;;
68250;SDS011;55066;51.560;4.642;2023-10-08T10:27:14;35.40;;;9.30;;
68250;SDS011;55066;51.560;4.642;2023-10-08T10:29:41;31.15;;;10.75;;
68250;SDS011;55066;51.560;4.642;2023-10-08T10:32:12;32.88;;;10.38;;
68250;SDS011;55066;51.560;4.642;2023-10-08T10:34:43;31.67;;;9.70;;
68250;SDS011;55066;51.560;4.642;2023-10-08T10:37:12;33.20;;;10.35;;
68250;SDS011;55066;51.560;4.642;2023-10-08T10:39:54;35.50;;;10.80;;
68250;SDS011;55066;51.560;4.642;2023-10-08T10:42:21;31.70;;;9.85;;
68250;SDS011;55066;51.560;4.642;2023-10-08T10:44:52;29.33;;;10.65;;
68250;SDS011;55066;51.560;4.642;2023-10-08T10:47:19;26.58;;;10.18;;
68250;SDS011;55066;51.560;4.642;2023-10-08T10:49:51;32.78;;;9.65;;
68250;SDS011;55066;51.560;4.642;2023-10-08T10:52:25;30.80;;;9.53;;
68250;SDS011;55066;51.560;4.642;2023-10-08T10:55:07;29.77;;;10.55;;
68250;SDS011;55066;51.560;4.642;2023-10-08T10:57:39;21.98;;;8.95;;
68250;SDS011;55066;51.560;4.642;2023-10-08T11:00:11;31.48;;;10.07;;
68250;SDS011;55066;51.560;4.642;2023-10-08T11:02:56;31.70;;;10.15;;
68250;SDS011;55066;51.560;4.642;2023-10-08T11:05:27;27.17;;;10.03;;
68250;SDS011;55066;51.560;4.642;2023-10-08T11:08:00;31.35;;;9.70;;
68250;SDS011;55066;51.560;4.642;2023-10-08T11:10:30;25.67;;;10.55;;
68250;SDS011;55066;51.560;4.642;2023-10-08T11:12:57;30.70;;;9.68;;
68250;SDS011;55066;51.560;4.642;2023-10-08T11:15:29;27.30;;;9.60;;
68250;SDS011;55066;51.560;4.642;2023-10-08T11:18:11;24.20;;;8.83;;
68250;SDS011;55066;51.560;4.642;2023-10-08T11:20:40;27.65;;;9.20;;
68250;SDS011;55066;51.560;4.642;2023-10-08T11:23:30;30.77;;;10.07;;
68250;SDS011;55066;51.560;4.642;2023-10-08T11:26:05;30.65;;;9.60;;
68250;SDS011;55066;51.560;4.642;2023-10-08T11:28:35;27.88;;;10.00;;
68250;SDS011;55066;51.560;4.642;2023-10-08T11:31:12;30.80;;;9.93;;
68250;SDS011;55066;51.560;4.642;2023-10-08T11:33:40;29.60;;;9.80;;
68250;SDS011;55066;51.560;4.642;2023-10-08T11:36:07;40.88;;;13.95;;
68250;SDS011;55066;51.560;4.642;2023-10-08T11:39:09;34.92;;;10.65;;
68250;SDS011;55066;51.560;4.642;2023-10-08T11:41:36;26.92;;;9.82;;
68250;SDS011;55066;51.560;4.642;2023-10-08T11:44:17;27.23;;;10.13;;
68250;SDS011;55066;51.560;4.642;2023-10-08T11:46:48;27.05;;;10.80;;
68250;SDS011;55066;51.560;4.642;2023-10-08T11:49:17;28.30;;;10.23;;
68250;SDS011;55066;51.560;4.642;2023-10-08T11:51:44;28.02;;;10.85;;
68250;SDS011;55066;51.560;4.642;2023-10-08T11:54:13;28.08;;;11.65;;
68250;SDS011;55066;51.560;4.642;2023-10-08T11:56:39;33.77;;;12.00;;
68250;SDS011;55066;51.560;4.642;2023-10-08T11:59:05;25.58;;;10.85;;
68250;SDS011;55066;51.560;4.642;2023-10-08T12:01:37;26.67;;;11.60;;
68250;SDS011;55066;51.560;4.642;2023-10-08T12:04:07;26.20;;;12.00;;
68250;SDS011;55066;51.560;4.642;2023-10-08T12:06:41;26.02;;;11.07;;
68250;SDS011;55066;51.560;4.642;2023-10-08T12:09:17;29.23;;;12.43;;
68250;SDS011;55066;51.560;4.642;2023-10-08T12:11:44;29.08;;;11.55;;
68250;SDS011;55066;51.560;4.642;2023-10-08T12:14:09;29.93;;;12.20;;
68250;SDS011;55066;51.560;4.642;2023-10-08T12:16:36;31.00;;;11.90;;
68250;SDS011;55066;51.560;4.642;2023-10-08T12:19:02;31.70;;;12.67;;
68250;SDS011;55066;51.560;4.642;2023-10-08T12:21:40;29.27;;;12.75;;
68250;SDS011;55066;51.560;4.642;2023-10-08T12:24:07;34.45;;;12.50;;
68250;SDS011;55066;51.560;4.642;2023-10-08T12:26:35;26.90;;;12.30;;
68250;SDS011;55066;51.560;4.642;2023-10-08T12:29:03;30.20;;;13.10;;
68250;SDS011;55066;51.560;4.642;2023-10-08T12:31:29;32.20;;;12.95;;
68250;SDS011;55066;51.560;4.642;2023-10-08T12:33:55;32.47;;;12.23;;
68250;SDS011;55066;51.560;4.642;2023-10-08T12:36:25;31.02;;;13.02;;
68250;SDS011;55066;51.560;4.642;2023-10-08T12:39:01;23.77;;;11.60;;
68250;SDS011;55066;51.560;4.642;2023-10-08T12:41:34;30.02;;;12.57;;
68250;SDS011;55066;51.560;4.642;2023-10-08T12:44:03;28.70;;;12.20;;
68250;SDS011;55066;51.560;4.642;2023-10-08T12:46:32;33.40;;;13.03;;
68250;SDS011;55066;51.560;4.642;2023-10-08T12:48:59;34.58;;;12.40;;
68250;SDS011;55066;51.560;4.642;2023-10-08T12:51:26;29.80;;;11.70;;
68250;SDS011;55066;51.560;4.642;2023-10-08T12:53:57;29.63;;;12.65;;
68250;SDS011;55066;51.560;4.642;2023-10-08T12:56:31;31.23;;;13.98;;
68250;SDS011;55066;51.560;4.642;2023-10-08T12:59:03;33.10;;;12.80;;
68250;SDS011;55066;51.560;4.642;2023-10-08T13:01:32;29.98;;;12.45;;
68250;SDS011;55066;51.560;4.642;2023-10-08T13:04:00;31.38;;;12.73;;
68250;SDS011;55066;51.560;4.642;2023-10-08T13:06:33;26.98;;;12.38;;
68250;SDS011;55066;51.560;4.642;2023-10-08T13:09:02;29.25;;;12.45;;
68250;SDS011;55066;51.560;4.642;2023-10-08T13:11:34;27.77;;;12.47;;
68250;SDS011;55066;51.560;4.642;2023-10-08T13:13:59;29.15;;;12.40;;
68250;SDS011;55066;51.560;4.642;2023-10-08T13:16:27;28.02;;;12.68;;
68250;SDS011;55066;51.560;4.642;2023-10-08T13:18:56;28.67;;;12.20;;
68250;SDS011;55066;51.560;4.642;2023-10-08T13:21:24;25.65;;;11.75;;
68250;SDS011;55066;51.560;4.642;2023-10-08T13:23:54;26.42;;;11.25;;
68250;SDS011;55066;51.560;4.642;2023-10-08T13:26:25;30.95;;;12.52;;
68250;SDS011;55066;51.560;4.642;2023-10-08T13:29:00;29.52;;;11.75;;
68250;SDS011;55066;51.560;4.642;2023-10-08T13:31:27;29.33;;;12.00;;
68250;SDS011;55066;51.560;4.642;2023-10-08T13:33:53;30.55;;;12.10;;
68250;SDS011;55066;51.560;4.642;2023-10-08T13:36:22;25.38;;;11.10;;
68250;SDS011;55066;51.560;4.642;2023-10-08T13:38:49;27.67;;;11.48;;
68250;SDS011;55066;51.560;4.642;2023-10-08T13:41:14;27.23;;;11.70;;
68250;SDS011;55066;51.560;4.642;2023-10-08T13:43:50;29.30;;;12.02;;
68250;SDS011;55066;51.560;4.642;2023-10-08T13:46:24;30.75;;;12.00;;
68250;SDS011;55066;51.560;4.642;2023-10-08T13:48:50;29.37;;;12.23;;
68250;SDS011;55066;51.560;4.642;2023-10-08T13:51:21;26.30;;;12.68;;
68250;SDS011;55066;51.560;4.642;2023-10-08T13:53:54;23.87;;;11.17;;
68250;SDS011;55066;51.560;4.642;2023-10-08T13:56:28;29.88;;;11.70;;
68250;SDS011;55066;51.560;4.642;2023-10-08T13:58:56;29.42;;;11.80;;
68250;SDS011;55066;51.560;4.642;2023-10-08T14:01:51;26.80;;;11.63;;
68250;SDS011;55066;51.560;4.642;2023-10-08T14:04:19;24.25;;;11.85;;
68250;SDS011;55066;51.560;4.642;2023-10-08T14:06:46;23.07;;;10.90;;
68250;SDS011;55066;51.560;4.642;2023-10-08T14:09:19;30.48;;;11.82;;
68250;SDS011;55066;51.560;4.642;2023-10-08T14:11:47;25.83;;;10.80;;
68250;SDS011;55066;51.560;4.642;2023-10-08T14:14:16;29.10;;;11.18;;
68250;SDS011;55066;51.560;4.642;2023-10-08T14:16:43;25.45;;;10.07;;
68250;SDS011;55066;51.560;4.642;2023-10-08T14:19:11;27.33;;;11.50;;
68250;SDS011;55066;51.560;4.642;2023-10-08T14:21:38;26.80;;;10.95;;
68250;SDS011;55066;51.560;4.642;2023-10-08T14:24:15;28.55;;;13.15;;
68250;SDS011;55066;51.560;4.642;2023-10-08T14:26:41;45.33;;;23.20;;
68250;SDS011;55066;51.560;4.642;2023-10-08T14:29:08;37.13;;;16.15;;
68250;SDS011;55066;51.560;4.642;2023-10-08T14:31:36;29.42;;;12.77;;
68250;SDS011;55066;51.560;4.642;2023-10-08T14:34:04;26.40;;;11.43;;
68250;SDS011;55066;51.560;4.642;2023-10-08T14:36:31;24.92;;;12.07;;
68250;SDS011;55066;51.560;4.642;2023-10-08T14:39:16;22.97;;;10.87;;
68250;SDS011;55066;51.560;4.642;2023-10-08T14:42:01;26.92;;;12.77;;
68250;SDS011;55066;51.560;4.642;2023-10-08T14:44:45;29.23;;;12.70;;
68250;SDS011;55066;51.560;4.642;2023-10-08T14:47:12;29.55;;;11.20;;
68250;SDS011;55066;51.560;4.642;2023-10-08T14:49:37;24.57;;;10.27;;
68250;SDS011;55066;51.560;4.642;2023-10-08T14:52:03;26.77;;;9.50;;
68250;SDS011;55066;51.560;4.642;2023-10-08T14:54:30;22.95;;;9.35;;
68250;SDS011;55066;51.560;4.642;2023-10-08T14:56:58;26.30;;;9.45;;